Time;durP1;ratioP1;P1;durP2;ratioP2;P2;SDS_P1;SDS_P2;PMS_P1;PMS_P2;Temp;Humidity;BMP_temperature;BMP_pressure;BME280_temperature;BME280_humidity;BME280_pressure;Samples;Min_cycle;Max_cycle;Signal;HPM_P1;HPM_P2
2021/11/30 00:01:05;;;;;;;2.53;2.00;;;0.00;99.90;;;;;;4987855;28;20789;-58
2021/11/30 00:03:35;;;;;;;2.10;1.70;;;0.10;99.90;;;;;;4982819;28;20450;-61
2021/11/30 00:06:01;;;;;;;2.53;2.20;;;0.10;99.90;;;;;;4987483;28;20422;-59
2021/11/30 00:08:30;;;;;;;3.87;2.30;;;0.10;99.90;;;;;;4987254;28;20465;-57
2021/11/30 00:10:58;;;;;;;2.80;2.20;;;0.10;99.90;;;;;;4986921;28;20428;-60
2021/11/30 00:13:25;;;;;;;3.37;2.33;;;0.10;99.90;;;;;;4983781;28;20434;-60
2021/11/30 00:15:55;;;;;;;2.43;2.23;;;0.10;99.90;;;;;;4988741;28;20426;-60
2021/11/30 00:18:21;;;;;;;3.87;2.50;;;0.10;99.90;;;;;;4984289;28;20486;-60
2021/11/30 00:20:47;;;;;;;3.77;2.10;;;0.10;99.90;;;;;;4987190;28;20524;-59
2021/11/30 00:23:14;;;;;;;1.80;1.70;;;0.00;99.90;;;;;;4987821;28;20453;-61
2021/11/30 00:25:40;;;;;;;2.37;2.20;;;0.00;99.90;;;;;;4987345;28;20182;-59
2021/11/30 00:28:07;;;;;;;2.20;2.10;;;0.00;99.90;;;;;;4987711;28;20463;-60
2021/11/30 00:30:33;;;;;;;2.07;1.87;;;0.10;99.90;;;;;;4990259;28;20418;-60
2021/11/30 00:33:01;;;;;;;2.27;1.90;;;0.10;99.90;;;;;;4986776;28;20948;-58
2021/11/30 00:35:27;;;;;;;2.10;2.00;;;0.10;99.90;;;;;;4986035;28;20517;-59
2021/11/30 00:37:53;;;;;;;3.43;2.00;;;0.10;99.90;;;;;;4982125;28;20465;-59
2021/11/30 00:40:19;;;;;;;2.00;1.87;;;0.00;99.90;;;;;;4982559;28;20426;-60
2021/11/30 00:42:45;;;;;;;4.13;2.40;;;0.00;99.90;;;;;;4989890;28;20168;-58
2021/11/30 00:45:16;;;;;;;3.50;2.27;;;0.10;99.90;;;;;;4984578;28;20179;-59
2021/11/30 00:48:19;;;;;;;1.80;1.70;;;0.10;99.90;;;;;;4989495;28;20457;-60
2021/11/30 00:50:34;;;;;;;2.37;2.17;;;0.10;99.90;;;;;;4983862;28;20446;-60
2021/11/30 00:53:00;;;;;;;2.43;2.23;;;0.10;99.90;;;;;;4988635;28;20415;-59
2021/11/30 00:55:25;;;;;;;1.83;1.73;;;0.10;99.90;;;;;;4986938;28;20476;-59
2021/11/30 00:57:51;;;;;;;2.07;1.87;;;0.10;99.90;;;;;;4986336;28;20614;-59
2021/11/30 01:00:19;;;;;;;1.90;1.80;;;0.10;99.90;;;;;;4985003;28;20258;-59
2021/11/30 01:02:46;;;;;;;1.73;1.63;;;0.00;99.90;;;;;;4987664;28;20171;-59
2021/11/30 01:05:13;;;;;;;1.60;1.50;;;0.00;99.90;;;;;;4987025;28;20422;-58
2021/11/30 01:07:39;;;;;;;2.03;1.53;;;0.00;99.90;;;;;;4987419;28;20735;-57
2021/11/30 01:10:09;;;;;;;5.90;2.07;;;0.10;99.90;;;;;;4985387;28;20477;-58
2021/11/30 01:12:34;;;;;;;1.60;1.50;;;0.10;99.90;;;;;;4986625;28;20175;-60
2021/11/30 01:15:01;;;;;;;1.90;1.80;;;0.00;99.90;;;;;;4984023;28;20568;-59
2021/11/30 01:17:27;;;;;;;3.43;1.70;;;0.10;99.90;;;;;;4986243;28;20223;-60
2021/11/30 01:19:53;;;;;;;1.90;1.80;;;0.10;99.90;;;;;;4985215;28;20488;-59
2021/11/30 01:22:18;;;;;;;1.97;1.87;;;0.10;99.90;;;;;;4990413;28;20515;-59
2021/11/30 01:24:44;;;;;;;2.07;1.87;;;0.10;99.90;;;;;;4989714;28;20194;-59
2021/11/30 01:27:10;;;;;;;2.30;1.90;;;0.10;99.90;;;;;;4990719;28;20203;-58
2021/11/30 01:29:35;;;;;;;1.93;1.83;;;0.10;99.90;;;;;;4985675;28;20309;-56
2021/11/30 01:32:01;;;;;;;2.10;1.90;;;0.00;99.90;;;;;;4988844;28;20495;-58
2021/11/30 01:34:27;;;;;;;1.70;1.60;;;0.00;99.90;;;;;;4988512;28;20398;-60
2021/11/30 01:36:53;;;;;;;4.40;1.70;;;0.10;99.90;;;;;;4986920;28;20214;-58
2021/11/30 01:39:19;;;;;;;1.80;1.70;;;0.10;99.90;;;;;;4987512;28;20206;-59
2021/11/30 01:41:45;;;;;;;1.80;1.70;;;0.10;99.90;;;;;;4993041;28;20646;-62
2021/11/30 01:44:26;;;;;;;4.27;2.10;;;0.10;99.90;;;;;;5016104;28;20478;-58
2021/11/30 01:47:05;;;;;;;3.13;1.50;;;0.10;99.90;;;;;;4994161;28;20480;-59
2021/11/30 01:49:34;;;;;;;2.23;1.73;;;0.20;99.90;;;;;;4991503;28;20573;-56
2021/11/30 01:52:11;;;;;;;2.00;1.90;;;0.20;99.90;;;;;;4991360;28;20521;-58
2021/11/30 01:54:39;;;;;;;1.93;1.83;;;0.20;99.90;;;;;;4987389;28;20445;-58
2021/11/30 01:57:07;;;;;;;2.20;1.70;;;0.20;99.90;;;;;;4987268;28;20477;-59
2021/11/30 01:59:33;;;;;;;1.90;1.70;;;0.20;99.90;;;;;;4986127;28;20435;-58
2021/11/30 02:01:59;;;;;;;2.00;1.90;;;0.10;99.90;;;;;;4989443;28;20948;-57
2021/11/30 02:04:24;;;;;;;4.17;2.23;;;0.10;99.90;;;;;;4986766;28;20446;-57
2021/11/30 02:06:50;;;;;;;2.40;2.13;;;0.10;99.90;;;;;;4986732;28;20203;-59
2021/11/30 02:09:16;;;;;;;2.90;2.20;;;0.00;99.90;;;;;;4990061;28;20263;-58
2021/11/30 02:11:41;;;;;;;1.70;1.60;;;0.00;99.90;;;;;;4988177;28;20183;-58
2021/11/30 02:14:07;;;;;;;2.93;1.97;;;0.00;99.90;;;;;;4989577;28;20236;-58
2021/11/30 02:16:33;;;;;;;2.70;2.33;;;0.00;99.90;;;;;;4988593;28;20306;-59
2021/11/30 02:19:02;;;;;;;3.60;2.30;;;0.00;99.90;;;;;;4988470;28;20430;-58
2021/11/30 02:21:36;;;;;;;3.10;2.60;;;0.00;99.90;;;;;;4988306;28;20432;-57
2021/11/30 02:24:03;;;;;;;2.80;2.20;;;0.10;99.90;;;;;;4990373;28;20444;-57
2021/11/30 02:26:30;;;;;;;2.87;2.10;;;0.10;99.90;;;;;;4988042;28;20428;-59
2021/11/30 02:28:57;;;;;;;2.27;2.07;;;0.00;99.90;;;;;;4986224;28;20509;-59
2021/11/30 02:31:26;;;;;;;2.07;1.77;;;0.10;99.90;;;;;;4990845;28;20444;-58
2021/11/30 02:33:51;;;;;;;2.97;2.13;;;0.10;99.90;;;;;;4999130;28;20453;-60
2021/11/30 02:39:10;;;;;;;4.30;2.20;;;0.10;99.90;;;;;;5019716;23;20516;-58
2021/11/30 02:41:36;;;;;;;2.90;2.43;;;0.10;99.90;;;;;;5006839;28;20810;-60
2021/11/30 02:44:03;;;;;;;3.70;2.40;;;0.10;99.90;;;;;;5008197;28;20413;-59
2021/11/30 02:46:36;;;;;;;3.87;2.20;;;0.10;99.90;;;;;;5011733;28;20409;-60
2021/11/30 02:49:06;;;;;;;3.10;2.23;;;0.10;99.90;;;;;;5009226;28;20580;-59
2021/11/30 02:51:33;;;;;;;2.10;2.00;;;0.10;99.90;;;;;;5006932;28;20516;-59
2021/11/30 02:54:01;;;;;;;4.43;2.40;;;0.10;99.90;;;;;;5009672;28;20780;-56
2021/11/30 02:56:28;;;;;;;4.00;2.60;;;0.10;99.90;;;;;;5003595;28;20433;-59
2021/11/30 02:58:55;;;;;;;2.70;1.97;;;0.10;99.90;;;;;;5004157;28;20477;-60
2021/11/30 03:01:21;;;;;;;3.43;2.33;;;0.10;99.90;;;;;;5004669;28;20429;-58
2021/11/30 03:03:47;;;;;;;5.07;2.70;;;0.10;99.90;;;;;;5006525;28;20437;-59
2021/11/30 03:06:13;;;;;;;3.23;2.37;;;0.10;99.90;;;;;;5004700;28;20978;-60
2021/11/30 03:08:40;;;;;;;4.20;2.53;;;0.10;99.90;;;;;;5005935;28;20465;-59
2021/11/30 03:11:07;;;;;;;3.50;2.30;;;0.10;99.90;;;;;;5004215;28;20182;-60
2021/11/30 03:13:33;;;;;;;5.50;2.30;;;0.10;99.90;;;;;;5002514;28;20935;-59
2021/11/30 03:15:59;;;;;;;2.47;2.27;;;0.10;99.90;;;;;;5007206;28;20425;-61
2021/11/30 03:18:25;;;;;;;3.40;2.47;;;0.10;99.90;;;;;;5007379;28;20704;-59
2021/11/30 03:20:51;;;;;;;4.33;2.50;;;0.10;99.90;;;;;;5006650;28;20175;-60
2021/11/30 03:23:16;;;;;;;3.90;2.50;;;0.10;99.90;;;;;;5006511;28;20434;-60
2021/11/30 03:25:43;;;;;;;2.43;2.23;;;0.10;99.90;;;;;;5005824;28;20182;-59
2021/11/30 03:28:11;;;;;;;2.23;2.03;;;0.20;99.90;;;;;;5006160;28;20201;-59
2021/11/30 03:30:41;;;;;;;5.60;2.40;;;0.20;99.90;;;;;;5005822;28;20402;-61
2021/11/30 03:35:53;;;;;;;2.37;2.17;;;0.10;99.90;;;;;;5006795;28;20435;-58
2021/11/30 03:38:19;;;;;;;7.03;3.17;;;0.20;99.90;;;;;;5005248;28;20467;-59
2021/11/30 03:40:45;;;;;;;2.23;2.07;;;0.10;99.90;;;;;;5004956;28;20425;-59
2021/11/30 03:43:10;;;;;;;5.00;2.57;;;0.20;99.90;;;;;;5003317;28;20425;-60
2021/11/30 03:45:36;;;;;;;3.27;2.10;;;0.20;99.90;;;;;;5004243;28;20256;-60
2021/11/30 03:48:02;;;;;;;4.33;2.10;;;0.20;99.90;;;;;;5004197;28;20209;-60
2021/11/30 03:50:28;;;;;;;3.10;2.43;;;0.20;99.90;;;;;;5005938;28;20370;-60
2021/11/30 03:52:53;;;;;;;2.53;2.37;;;0.20;99.90;;;;;;5005273;28;20650;-60
2021/11/30 03:55:19;;;;;;;3.23;2.43;;;0.10;99.90;;;;;;5006609;28;20584;-60
2021/11/30 03:57:44;;;;;;;2.63;2.33;;;0.10;99.90;;;;;;5002604;28;20213;-60
2021/11/30 04:00:11;;;;;;;3.00;2.47;;;0.10;99.90;;;;;;5000324;28;20254;-58
2021/11/30 04:02:39;;;;;;;3.50;2.27;;;0.10;99.90;;;;;;5003903;28;20182;-60
2021/11/30 04:05:08;;;;;;;6.70;2.37;;;0.10;99.90;;;;;;5004931;28;20544;-59
2021/11/30 04:07:33;;;;;;;2.67;2.47;;;0.10;99.90;;;;;;5005376;28;20468;-58
2021/11/30 04:09:59;;;;;;;2.43;2.07;;;0.10;99.90;;;;;;5003391;28;20425;-60
2021/11/30 04:12:25;;;;;;;2.40;2.20;;;0.10;99.90;;;;;;5005914;28;20579;-60
2021/11/30 04:14:51;;;;;;;5.00;2.40;;;0.10;99.90;;;;;;5003849;28;20564;-60
2021/11/30 04:17:17;;;;;;;5.57;2.40;;;0.00;99.80;;;;;;5004425;28;20526;-60
2021/11/30 04:19:42;;;;;;;4.33;2.90;;;0.10;99.90;;;;;;5002435;28;20179;-60
2021/11/30 04:22:08;;;;;;;2.37;2.17;;;0.10;99.90;;;;;;5003635;28;20603;-60
2021/11/30 04:24:33;;;;;;;3.83;2.43;;;0.00;99.90;;;;;;5004010;28;20206;-60
2021/11/30 04:26:59;;;;;;;2.83;2.17;;;0.00;99.70;;;;;;5004039;28;20190;-60
2021/11/30 04:29:25;;;;;;;3.20;2.43;;;0.10;99.60;;;;;;5006309;28;20695;-59
2021/11/30 04:31:51;;;;;;;3.20;2.70;;;0.00;99.70;;;;;;5005156;28;20170;-60
2021/11/30 04:34:17;;;;;;;3.03;2.60;;;0.10;99.70;;;;;;5005529;28;20436;-60
2021/11/30 04:36:43;;;;;;;3.47;2.83;;;0.10;99.60;;;;;;5005151;28;20240;-58
2021/11/30 04:39:09;;;;;;;5.27;3.03;;;0.10;99.40;;;;;;5005705;28;20457;-60
2021/11/30 04:41:35;;;;;;;4.50;2.63;;;0.10;99.00;;;;;;5002568;28;20520;-60
2021/11/30 04:44:01;;;;;;;7.40;2.73;;;0.10;98.90;;;;;;5004942;28;20170;-60
2021/11/30 04:46:29;;;;;;;7.17;2.50;;;0.10;99.00;;;;;;5006587;28;20448;-60
2021/11/30 04:49:06;;;;;;;3.17;2.57;;;0.10;99.20;;;;;;5004015;28;20206;-60
2021/11/30 04:51:32;;;;;;;4.07;2.87;;;0.10;98.90;;;;;;5007731;28;20939;-60
2021/11/30 04:53:59;;;;;;;4.97;3.20;;;0.10;98.50;;;;;;5007923;28;20793;-60
2021/11/30 04:56:24;;;;;;;5.90;3.03;;;0.10;98.30;;;;;;5015437;28;20497;-60
2021/11/30 04:58:50;;;;;;;4.30;2.80;;;0.10;98.60;;;;;;5007932;28;20543;-57
2021/11/30 05:01:19;;;;;;;4.40;2.83;;;0.20;98.90;;;;;;5003599;28;20185;-58
2021/11/30 05:03:45;;;;;;;4.00;2.90;;;0.20;98.80;;;;;;5007289;28;20182;-59
2021/11/30 05:06:12;;;;;;;3.27;2.77;;;0.20;98.40;;;;;;5006216;28;20819;-60
2021/11/30 05:08:38;;;;;;;5.13;3.07;;;0.20;98.50;;;;;;5007723;28;20472;-61
2021/11/30 05:11:04;;;;;;;5.73;3.00;;;0.20;97.80;;;;;;5004257;28;20433;-60
2021/11/30 05:13:30;;;;;;;3.67;2.63;;;0.20;97.50;;;;;;5008605;28;20429;-60
2021/11/30 05:15:57;;;;;;;9.30;3.00;;;0.20;97.60;;;;;;5009851;28;20177;-61
2021/11/30 05:18:22;;;;;;;7.63;2.80;;;0.10;97.40;;;;;;5006899;28;20467;-60
2021/11/30 05:20:49;;;;;;;4.93;3.03;;;0.10;97.50;;;;;;5009450;28;20936;-59
2021/11/30 05:23:24;;;;;;;6.00;3.10;;;0.10;98.00;;;;;;5011440;28;20581;-60
2021/11/30 05:25:49;;;;;;;3.43;2.67;;;0.10;97.20;;;;;;5008323;28;20421;-61
2021/11/30 05:28:15;;;;;;;7.77;3.63;;;0.10;97.70;;;;;;5006588;28;20607;-60
2021/11/30 05:30:41;;;;;;;6.23;3.33;;;0.10;97.60;;;;;;5014683;28;20173;-61
2021/11/30 05:33:11;;;;;;;4.33;3.20;;;0.10;97.70;;;;;;5029907;28;20194;-61
2021/11/30 05:35:38;;;;;;;2.83;2.50;;;0.10;97.70;;;;;;5031676;28;20201;-62
2021/11/30 05:38:04;;;;;;;5.37;2.67;;;0.10;97.90;;;;;;5009462;28;20466;-58
2021/11/30 05:40:32;;;;;;;4.17;2.70;;;0.10;97.90;;;;;;5006385;28;20789;-60
2021/11/30 05:42:58;;;;;;;4.00;3.23;;;0.10;97.60;;;;;;5001273;28;20522;-60
2021/11/30 05:45:24;;;;;;;5.23;2.97;;;0.00;97.80;;;;;;5005951;28;20441;-59
2021/11/30 05:47:49;;;;;;;4.10;2.50;;;0.00;98.10;;;;;;5008274;28;20469;-60
2021/11/30 05:50:15;;;;;;;7.30;2.63;;;0.00;98.00;;;;;;5001281;28;20169;-61
2021/11/30 05:52:41;;;;;;;4.27;2.80;;;0.00;97.50;;;;;;5006181;28;20189;-60
2021/11/30 05:55:07;;;;;;;3.10;2.70;;;0.00;97.20;;;;;;5005882;28;20292;-60
2021/11/30 05:57:33;;;;;;;6.73;2.77;;;0.00;97.60;;;;;;5002846;28;20699;-60
2021/11/30 06:00:01;;;;;;;2.73;2.53;;;-0.10;97.90;;;;;;5004869;28;20437;-60
2021/11/30 06:02:30;;;;;;;4.83;2.53;;;-0.10;97.70;;;;;;5008880;28;20178;-60
2021/11/30 06:04:56;;;;;;;3.40;2.80;;;-0.10;97.40;;;;;;5010221;28;20423;-57
2021/11/30 06:07:22;;;;;;;5.90;2.70;;;-0.10;97.50;;;;;;5007334;28;20527;-60
2021/11/30 06:09:47;;;;;;;2.57;2.20;;;-0.10;97.80;;;;;;5006612;28;20460;-62
2021/11/30 06:12:13;;;;;;;5.30;3.10;;;-0.10;97.80;;;;;;5008398;28;20486;-63
2021/11/30 06:14:39;;;;;;;8.80;3.03;;;-0.20;97.90;;;;;;5000390;28;20237;-58
2021/11/30 06:17:06;;;;;;;4.60;3.30;;;-0.20;98.00;;;;;;5009602;28;20539;-60
2021/11/30 06:19:34;;;;;;;5.47;2.90;;;-0.20;97.50;;;;;;5005604;28;20171;-59
2021/11/30 06:22:00;;;;;;;3.30;2.90;;;-0.20;97.80;;;;;;5007556;28;20427;-60
2021/11/30 06:24:26;;;;;;;6.40;3.10;;;-0.30;98.10;;;;;;5009448;28;20417;-58
2021/11/30 06:26:51;;;;;;;4.63;3.03;;;-0.30;98.50;;;;;;5006382;28;20430;-60
2021/11/30 06:29:17;;;;;;;4.23;2.87;;;-0.20;98.50;;;;;;5000449;28;20284;-59
2021/11/30 06:31:43;;;;;;;8.50;3.53;;;-0.20;98.60;;;;;;4990228;28;20175;-60
2021/11/30 06:34:09;;;;;;;3.70;3.30;;;-0.20;99.00;;;;;;5010019;28;20500;-60
2021/11/30 06:36:34;;;;;;;6.33;2.77;;;-0.20;98.60;;;;;;4994847;28;20178;-60
2021/11/30 06:39:00;;;;;;;3.67;3.23;;;-0.20;98.40;;;;;;4989603;28;20210;-60
2021/11/30 06:41:26;;;;;;;4.47;3.70;;;-0.20;98.20;;;;;;4997793;28;20198;-60
2021/11/30 06:43:52;;;;;;;4.20;3.27;;;-0.20;98.40;;;;;;5008815;28;20178;-58
2021/11/30 06:46:19;;;;;;;5.47;3.23;;;-0.20;98.30;;;;;;5014560;28;20257;-60
2021/11/30 06:48:45;;;;;;;4.03;3.00;;;-0.20;98.60;;;;;;5008852;28;20209;-60
2021/11/30 06:51:10;;;;;;;4.13;3.07;;;-0.20;98.80;;;;;;5008041;28;20424;-60
2021/11/30 06:53:36;;;;;;;4.00;3.10;;;-0.20;98.60;;;;;;5006663;28;20235;-60
2021/11/30 06:56:02;;;;;;;3.63;3.03;;;-0.20;98.80;;;;;;5009545;28;20246;-60
2021/11/30 06:58:28;;;;;;;6.73;3.47;;;-0.10;99.00;;;;;;5008234;28;20194;-60
2021/11/30 07:00:53;;;;;;;5.30;3.00;;;-0.10;98.90;;;;;;5008600;28;20927;-60
2021/11/30 07:03:21;;;;;;;4.20;3.00;;;-0.10;99.10;;;;;;5009294;28;20184;-60
2021/11/30 07:05:52;;;;;;;5.47;3.20;;;-0.10;99.40;;;;;;5002473;28;20183;-60
2021/11/30 07:08:49;;;;;;;9.23;4.13;;;-0.10;99.50;;;;;;5007850;28;20538;-60
2021/11/30 07:11:19;;;;;;;6.27;3.30;;;-0.10;99.70;;;;;;5001628;28;20920;-60
2021/11/30 07:13:45;;;;;;;4.00;2.97;;;-0.10;99.90;;;;;;5003255;28;20934;-60
2021/11/30 07:16:10;;;;;;;4.50;3.40;;;-0.10;99.80;;;;;;5007580;28;20442;-59
2021/11/30 07:18:37;;;;;;;5.50;3.50;;;-0.10;99.70;;;;;;5009896;28;20190;-60
2021/11/30 07:21:03;;;;;;;4.80;3.03;;;-0.10;99.30;;;;;;5007503;28;20676;-58
2021/11/30 07:23:30;;;;;;;5.63;3.60;;;-0.10;99.20;;;;;;5008799;28;20626;-61
2021/11/30 07:25:56;;;;;;;9.00;3.97;;;-0.10;99.50;;;;;;5001778;28;20436;-59
2021/11/30 07:28:31;;;;;;;6.80;3.63;;;-0.10;99.40;;;;;;5008325;28;20938;-60
2021/11/30 07:30:59;;;;;;;5.77;3.77;;;-0.20;99.50;;;;;;5008471;28;20408;-60
2021/11/30 07:33:25;;;;;;;4.00;3.30;;;-0.20;99.90;;;;;;5003048;28;20528;-60
2021/11/30 07:35:51;;;;;;;5.13;3.00;;;-0.20;99.90;;;;;;5010421;28;20842;-60
2021/11/30 07:38:17;;;;;;;7.10;4.10;;;-0.20;99.90;;;;;;5010034;28;20213;-59
2021/11/30 07:40:43;;;;;;;6.97;3.87;;;-0.20;99.90;;;;;;5007552;28;20200;-60
2021/11/30 07:43:09;;;;;;;5.33;3.73;;;-0.20;99.90;;;;;;5008093;28;20931;-60
2021/11/30 07:45:35;;;;;;;6.10;3.70;;;-0.20;99.90;;;;;;5009190;28;20425;-59
2021/11/30 07:48:01;;;;;;;5.10;3.43;;;-0.20;99.90;;;;;;5008898;28;20475;-59
2021/11/30 07:50:26;;;;;;;3.73;3.37;;;-0.30;99.90;;;;;;5007427;28;20189;-60
2021/11/30 07:52:52;;;;;;;5.63;3.70;;;-0.30;99.90;;;;;;5011691;28;20182;-61
2021/11/30 07:55:18;;;;;;;6.10;3.30;;;-0.30;99.90;;;;;;5013054;28;20665;-61
2021/11/30 07:57:45;;;;;;;6.57;3.63;;;-0.30;99.90;;;;;;5009105;28;20442;-59
2021/11/30 08:00:14;;;;;;;4.73;3.87;;;-0.20;99.90;;;;;;5005867;28;20428;-61
2021/11/30 08:02:40;;;;;;;8.80;4.47;;;-0.20;99.90;;;;;;5008000;28;20444;-61
2021/11/30 08:05:07;;;;;;;8.63;4.83;;;-0.20;99.90;;;;;;5008726;28;20921;-60
2021/11/30 08:07:33;;;;;;;6.53;4.07;;;-0.20;99.90;;;;;;5006622;28;20475;-59
2021/11/30 08:09:59;;;;;;;8.77;4.23;;;-0.20;99.90;;;;;;5008541;28;20413;-62
2021/11/30 08:12:25;;;;;;;5.00;3.13;;;-0.20;99.90;;;;;;5008225;28;20483;-61
2021/11/30 08:14:51;;;;;;;4.23;3.73;;;-0.20;99.90;;;;;;5005017;28;20405;-60
2021/11/30 08:17:18;;;;;;;5.57;3.97;;;-0.20;99.90;;;;;;5020724;28;20828;-59
2021/11/30 08:19:47;;;;;;;5.83;3.93;;;-0.20;99.90;;;;;;5021838;28;20226;-59
2021/11/30 08:22:13;;;;;;;6.70;3.70;;;-0.10;99.90;;;;;;4999744;28;20509;-60
2021/11/30 08:24:38;;;;;;;4.57;3.60;;;-0.10;99.90;;;;;;5005723;28;21111;-59
2021/11/30 08:27:05;;;;;;;10.17;3.10;;;-0.10;99.90;;;;;;5007150;28;20439;-60
2021/11/30 08:29:39;;;;;;;7.67;4.30;;;-0.20;99.90;;;;;;4994765;28;20202;-59
2021/11/30 08:32:08;;;;;;;4.43;3.43;;;-0.20;99.90;;;;;;5007096;28;20710;-60
2021/11/30 08:34:34;;;;;;;12.63;4.07;;;-0.20;99.90;;;;;;5008421;28;20405;-61
2021/11/30 08:37:00;;;;;;;11.13;3.90;;;-0.10;99.90;;;;;;5012477;28;20418;-60
2021/11/30 08:39:26;;;;;;;4.90;3.77;;;-0.10;99.90;;;;;;5010832;28;20449;-60
2021/11/30 08:41:51;;;;;;;4.83;3.70;;;-0.10;99.90;;;;;;5006235;28;20174;-60
2021/11/30 08:44:17;;;;;;;4.13;3.73;;;-0.10;99.90;;;;;;5012889;28;20510;-60
2021/11/30 08:46:43;;;;;;;5.47;3.80;;;-0.10;99.90;;;;;;5011711;28;20178;-59
2021/11/30 08:49:09;;;;;;;8.70;4.20;;;-0.10;99.90;;;;;;4995405;28;20686;-59
2021/11/30 08:51:34;;;;;;;7.30;3.77;;;-0.10;99.90;;;;;;5009386;28;20239;-59
2021/11/30 08:54:00;;;;;;;7.43;3.53;;;-0.10;99.90;;;;;;5012196;28;20174;-60
2021/11/30 08:56:26;;;;;;;8.60;3.60;;;0.00;99.90;;;;;;5011532;28;20324;-61
2021/11/30 08:58:52;;;;;;;6.97;4.30;;;0.00;99.90;;;;;;5010490;28;21066;-60
2021/11/30 09:01:19;;;;;;;6.80;3.40;;;0.00;99.90;;;;;;5010149;28;20253;-60
2021/11/30 09:03:45;;;;;;;4.67;3.00;;;0.00;99.90;;;;;;5012859;28;20232;-60
2021/11/30 09:06:11;;;;;;;6.50;4.40;;;0.00;99.90;;;;;;5011973;28;20920;-61
2021/11/30 09:08:36;;;;;;;6.33;3.80;;;0.00;99.90;;;;;;5011745;28;20251;-60
2021/11/30 09:11:03;;;;;;;4.80;3.13;;;0.00;99.90;;;;;;5010224;28;20185;-61
2021/11/30 09:13:28;;;;;;;6.17;3.07;;;0.00;99.90;;;;;;5011304;28;20213;-60
2021/11/30 09:15:54;;;;;;;4.80;4.07;;;0.00;99.90;;;;;;5009144;28;20479;-60
2021/11/30 09:18:20;;;;;;;3.67;3.37;;;0.00;99.90;;;;;;5011796;28;20244;-60
2021/11/30 09:20:46;;;;;;;3.93;3.53;;;0.00;99.90;;;;;;5010820;28;20192;-60
2021/11/30 09:23:12;;;;;;;5.30;3.47;;;0.00;99.90;;;;;;5003295;28;20178;-60
2021/11/30 09:25:38;;;;;;;3.80;3.00;;;0.10;99.90;;;;;;4991971;28;20421;-61
2021/11/30 09:28:04;;;;;;;4.80;3.30;;;0.10;99.90;;;;;;4992261;28;20212;-60
2021/11/30 09:30:34;;;;;;;3.77;3.17;;;0.10;99.90;;;;;;5007054;28;20428;-60
2021/11/30 09:33:00;;;;;;;4.83;2.93;;;0.20;99.90;;;;;;5003889;28;20515;-60
2021/11/30 09:35:26;;;;;;;5.20;3.23;;;0.20;99.90;;;;;;5012340;28;20481;-62
2021/11/30 09:37:54;;;;;;;4.80;3.33;;;0.30;99.90;;;;;;5021055;28;20211;-60
2021/11/30 09:40:23;;;;;;;5.10;3.47;;;0.30;99.90;;;;;;5022038;28;20520;-60
2021/11/30 09:42:50;;;;;;;4.20;2.70;;;0.40;99.90;;;;;;5014556;28;20418;-60
2021/11/30 09:45:16;;;;;;;9.43;3.30;;;0.30;99.90;;;;;;5010544;28;20991;-60
2021/11/30 09:47:43;;;;;;;3.97;3.17;;;0.40;99.90;;;;;;5010859;28;20892;-60
2021/11/30 09:50:12;;;;;;;8.03;2.83;;;0.50;99.90;;;;;;5007736;28;20425;-61
2021/11/30 09:52:38;;;;;;;3.23;2.73;;;0.50;99.90;;;;;;5003623;28;20450;-60
2021/11/30 09:55:05;;;;;;;4.53;3.10;;;0.50;99.90;;;;;;5010774;28;20423;-58
2021/11/30 09:57:31;;;;;;;6.60;2.83;;;0.50;99.90;;;;;;5010675;28;20448;-59
2021/11/30 09:59:58;;;;;;;4.70;3.10;;;0.50;99.90;;;;;;5009459;28;20429;-61
2021/11/30 10:02:23;;;;;;;4.20;3.20;;;0.60;99.90;;;;;;5009908;28;20425;-60
2021/11/30 10:04:49;;;;;;;5.33;3.53;;;0.50;99.90;;;;;;5004640;28;20548;-60
2021/11/30 10:07:15;;;;;;;7.77;3.17;;;0.50;99.90;;;;;;5009020;28;20192;-61
2021/11/30 10:09:41;;;;;;;3.57;3.10;;;0.50;99.90;;;;;;5008218;28;20429;-59
2021/11/30 10:12:09;;;;;;;5.90;3.20;;;0.50;99.90;;;;;;4994377;28;20634;-61
2021/11/30 10:14:41;;;;;;;4.90;3.23;;;0.50;99.90;;;;;;5009400;28;20680;-60
2021/11/30 10:17:06;;;;;;;4.40;3.13;;;0.60;99.90;;;;;;4996889;28;20902;-58
2021/11/30 10:19:32;;;;;;;6.87;3.10;;;0.60;99.90;;;;;;5009528;28;20449;-60
2021/11/30 10:21:58;;;;;;;4.83;3.20;;;0.60;99.90;;;;;;4999435;28;20170;-60
2021/11/30 10:24:24;;;;;;;5.27;2.80;;;0.60;99.90;;;;;;5007331;28;20175;-59
2021/11/30 10:26:49;;;;;;;5.50;3.50;;;0.60;99.90;;;;;;5010673;28;20182;-59
2021/11/30 10:29:17;;;;;;;3.67;2.90;;;0.60;99.90;;;;;;5008552;28;20206;-60
2021/11/30 10:31:48;;;;;;;6.97;3.03;;;0.60;99.90;;;;;;5006377;28;20171;-59
2021/11/30 10:34:17;;;;;;;2.70;2.50;;;0.60;99.90;;;;;;5009015;28;20428;-60
2021/11/30 10:36:52;;;;;;;3.63;3.33;;;0.60;99.90;;;;;;5014494;28;20505;-61
2021/11/30 10:39:22;;;;;;;3.00;2.80;;;0.70;99.90;;;;;;5008576;28;20454;-60
2021/11/30 10:41:51;;;;;;;3.80;3.20;;;0.70;99.90;;;;;;5010011;28;20459;-59
2021/11/30 10:44:30;;;;;;;4.30;2.70;;;0.60;99.80;;;;;;5003672;28;20440;-60
2021/11/30 10:47:08;;;;;;;9.97;3.10;;;0.70;99.90;;;;;;5010613;28;20418;-59
2021/11/30 10:49:38;;;;;;;4.90;3.40;;;0.60;99.90;;;;;;5008732;28;20442;-59
2021/11/30 10:52:03;;;;;;;4.17;3.20;;;0.70;99.90;;;;;;4996607;28;20432;-59
2021/11/30 10:54:37;;;;;;;3.00;2.70;;;0.70;99.90;;;;;;5009794;28;20429;-59
2021/11/30 10:57:03;;;;;;;2.77;2.57;;;0.70;99.90;;;;;;5010422;28;20915;-60
2021/11/30 10:59:29;;;;;;;4.93;3.70;;;0.80;99.90;;;;;;5000533;28;20446;-58
2021/11/30 11:01:55;;;;;;;2.80;2.53;;;0.80;99.90;;;;;;5010898;28;20436;-60
2021/11/30 11:04:29;;;;;;;5.70;3.30;;;0.80;99.90;;;;;;5007120;28;20422;-60
2021/11/30 11:07:12;;;;;;;3.10;2.80;;;0.90;99.90;;;;;;5003515;28;20426;-60
2021/11/30 11:09:50;;;;;;;2.70;2.50;;;0.90;99.90;;;;;;5008532;28;20437;-60
2021/11/30 11:12:26;;;;;;;3.20;2.60;;;1.00;99.90;;;;;;4999879;28;20987;-60
2021/11/30 11:14:54;;;;;;;2.87;2.67;;;1.00;99.70;;;;;;5017757;28;20469;-60
2021/11/30 11:17:29;;;;;;;2.57;2.30;;;1.10;99.40;;;;;;5014398;28;20817;-60
2021/11/30 11:19:56;;;;;;;4.23;2.47;;;1.10;99.90;;;;;;5008979;28;20459;-60
2021/11/30 11:22:24;;;;;;;2.80;2.60;;;1.10;99.90;;;;;;5001839;28;20437;-61
2021/11/30 11:25:02;;;;;;;5.73;2.50;;;1.10;99.90;;;;;;5004382;28;20831;-59
2021/11/30 11:27:42;;;;;;;2.93;2.57;;;1.10;99.90;;;;;;5009592;28;21090;-60
2021/11/30 11:30:11;;;;;;;3.93;2.80;;;1.10;99.90;;;;;;5005405;28;20617;-61
2021/11/30 11:32:37;;;;;;;2.73;2.20;;;1.00;99.90;;;;;;5009539;28;20456;-61
2021/11/30 11:35:04;;;;;;;5.40;2.53;;;1.00;99.90;;;;;;5009715;28;20446;-59
2021/11/30 11:37:29;;;;;;;2.80;2.50;;;1.00;99.90;;;;;;5008766;28;20212;-60
2021/11/30 11:39:56;;;;;;;2.37;2.17;;;1.00;99.90;;;;;;5004231;28;20433;-61
2021/11/30 11:42:22;;;;;;;3.80;2.70;;;1.00;99.90;;;;;;5010051;28;20174;-61
2021/11/30 11:44:48;;;;;;;2.17;2.00;;;1.00;99.90;;;;;;5009786;28;20402;-60
2021/11/30 11:47:20;;;;;;;3.20;2.90;;;1.00;99.90;;;;;;5009874;28;20428;-61
2021/11/30 11:49:48;;;;;;;3.03;2.73;;;1.00;99.90;;;;;;4998634;28;20429;-61
2021/11/30 11:52:21;;;;;;;3.10;2.80;;;1.00;99.90;;;;;;5008270;28;20465;-60
2021/11/30 11:55:18;;;;;;;8.00;2.90;;;1.00;99.90;;;;;;5009704;28;20417;-60
2021/11/30 11:58:01;;;;;;;3.03;2.60;;;1.00;99.90;;;;;;4985967;28;20685;-60
2021/11/30 12:00:32;;;;;;;3.37;2.37;;;1.10;99.90;;;;;;4997288;28;20448;-60
2021/11/30 12:03:01;;;;;;;2.30;2.10;;;1.10;99.90;;;;;;5003777;28;20433;-60
2021/11/30 12:05:49;;;;;;;4.47;2.97;;;1.10;99.90;;;;;;5008389;28;20500;-60
2021/11/30 12:08:21;;;;;;;4.90;2.20;;;1.10;99.90;;;;;;5009788;28;20857;-61
2021/11/30 12:10:49;;;;;;;4.30;2.40;;;1.10;99.90;;;;;;5003006;28;20428;-60
2021/11/30 12:13:19;;;;;;;2.60;2.30;;;1.20;99.90;;;;;;4990344;28;20489;-60
2021/11/30 12:16:05;;;;;;;2.67;2.40;;;1.20;99.90;;;;;;4996575;28;20434;-60
2021/11/30 12:18:36;;;;;;;2.53;2.30;;;1.20;99.90;;;;;;5000809;28;20452;-59
2021/11/30 12:21:23;;;;;;;3.10;2.40;;;1.20;99.90;;;;;;5002240;28;20915;-60
2021/11/30 12:23:52;;;;;;;2.90;1.83;;;1.20;99.90;;;;;;5006316;28;20409;-60
2021/11/30 12:26:41;;;;;;;2.30;2.10;;;1.10;99.90;;;;;;5009744;28;20426;-59
2021/11/30 12:29:29;;;;;;;2.63;2.30;;;1.20;99.90;;;;;;5008257;28;20492;-61
2021/11/30 12:31:56;;;;;;;2.30;2.03;;;1.10;99.90;;;;;;5007198;28;20982;-60
2021/11/30 12:34:35;;;;;;;9.57;2.63;;;1.20;99.90;;;;;;5001471;28;20440;-60
2021/11/30 12:37:07;;;;;;;8.60;2.50;;;1.20;99.90;;;;;;5006205;28;20439;-59
2021/11/30 12:40:11;;;;;;;3.93;2.53;;;1.10;99.90;;;;;;5005090;28;20472;-59
2021/11/30 12:42:44;;;;;;;3.63;2.43;;;1.10;99.90;;;;;;5007492;28;20539;-65
2021/11/30 12:45:22;;;;;;;7.50;2.60;;;1.10;99.90;;;;;;5013662;28;20792;-60
2021/11/30 12:47:48;;;;;;;3.30;2.50;;;1.20;99.90;;;;;;4995959;28;20469;-61
2021/11/30 12:50:26;;;;;;;2.93;2.50;;;1.10;99.90;;;;;;4998383;28;20534;-58
2021/11/30 12:53:03;;;;;;;6.33;3.13;;;1.10;99.90;;;;;;4996785;28;20520;-61
2021/11/30 12:55:52;;;;;;;3.67;2.57;;;1.10;99.90;;;;;;4997124;28;20444;-60
2021/11/30 12:58:45;;;;;;;3.33;2.10;;;1.10;99.90;;;;;;4998913;28;20468;-58
2021/11/30 13:01:29;;;;;;;3.23;2.20;;;1.10;99.90;;;;;;4999233;28;20515;-60
2021/11/30 13:04:29;;;;;;;2.17;1.83;;;1.10;99.90;;;;;;5002033;28;20509;-59
2021/11/30 13:07:06;;;;;;;2.03;1.83;;;1.10;99.90;;;;;;5002337;28;20441;-60